createdAt,value
2023-01-24T00:01:17.259Z,11.55
2023-01-24T00:03:46.835Z,12.45
2023-01-24T00:06:14.828Z,9.45
2023-01-24T00:08:42.606Z,11.43
2023-01-24T00:11:12.625Z,10.43
2023-01-24T00:13:40.698Z,12.63
2023-01-24T00:16:11.458Z,10.60
2023-01-24T00:18:39.597Z,12.07
2023-01-24T00:21:13.163Z,13.13
2023-01-24T00:26:09.638Z,10.18
2023-01-24T00:28:37.863Z,10.20
2023-01-24T00:31:06.557Z,10.50
2023-01-24T00:33:34.995Z,12.70
2023-01-24T00:36:03.782Z,11.13
2023-01-24T00:38:33.583Z,11.27
2023-01-24T00:41:01.455Z,11.70
2023-01-24T00:43:29.391Z,12.57
2023-01-24T00:45:58.106Z,10.52
2023-01-24T00:48:25.854Z,10.30
2023-01-24T00:50:53.892Z,11.77
2023-01-24T00:53:21.900Z,10.07
2023-01-24T00:55:51.462Z,12.20
2023-01-24T00:58:19.237Z,9.40
2023-01-24T01:00:46.979Z,11.13
2023-01-24T01:03:16.213Z,10.48
2023-01-24T01:05:44.443Z,10.07
2023-01-24T01:08:13.341Z,10.43
2023-01-24T01:10:41.875Z,8.77
2023-01-24T01:13:13.682Z,11.38
2023-01-24T01:15:41.475Z,10.52
2023-01-24T01:18:09.354Z,10.07
2023-01-24T01:20:37.355Z,10.23
2023-01-24T01:23:05.287Z,8.93
2023-01-24T01:25:33.287Z,10.02
2023-01-24T01:28:01.037Z,10.07
2023-01-24T01:30:30.150Z,11.07
2023-01-24T01:32:57.947Z,9.02
2023-01-24T01:35:25.739Z,9.50
2023-01-24T01:37:53.440Z,10.48
2023-01-24T01:40:21.230Z,9.55
2023-01-24T01:42:54.239Z,9.40
2023-01-24T01:45:36.153Z,8.65
2023-01-24T01:48:13.287Z,10.05
2023-01-24T01:50:45.957Z,8.25
2023-01-24T01:53:16.111Z,9.33
2023-01-24T01:55:50.111Z,8.63
2023-01-24T01:58:19.334Z,10.05
2023-01-24T02:00:51.418Z,8.55
2023-01-24T02:03:42.392Z,10.02
2023-01-24T02:06:20.483Z,9.60
2023-01-24T02:08:49.828Z,9.35
2023-01-24T02:11:35.582Z,8.15
2023-01-24T02:14:20.861Z,8.82
2023-01-24T02:16:50.033Z,9.30
2023-01-24T02:19:29.525Z,10.52
2023-01-24T02:22:04.864Z,8.32
2023-01-24T02:24:37.920Z,8.57
2023-01-24T02:27:06.983Z,9.25
2023-01-24T02:29:34.876Z,7.65
2023-01-24T02:32:04.650Z,10.38
2023-01-24T02:34:32.474Z,8.57
2023-01-24T02:37:03.267Z,8.48
2023-01-24T02:39:34.694Z,9.82
2023-01-24T02:42:06.566Z,8.60
2023-01-24T02:44:50.414Z,10.50
2023-01-24T02:49:45.707Z,7.30
2023-01-24T02:52:31.089Z,8.48
2023-01-24T02:54:58.853Z,10.40
2023-01-24T02:57:44.231Z,9.35
2023-01-24T03:00:14.433Z,9.27
2023-01-24T03:02:42.143Z,9.60
2023-01-24T03:05:10.551Z,8.65
2023-01-24T03:07:45.329Z,10.38
2023-01-24T03:10:15.216Z,9.35
2023-01-24T03:13:00.995Z,9.75
2023-01-24T03:15:47.627Z,8.95
2023-01-24T03:18:33.433Z,8.30
2023-01-24T03:21:18.746Z,11.18
2023-01-24T03:24:03.992Z,9.63
2023-01-24T03:26:49.367Z,10.35
2023-01-24T03:29:34.672Z,9.75
2023-01-24T03:32:21.543Z,10.40
2023-01-24T03:34:50.991Z,10.00
2023-01-24T03:37:40.143Z,11.23
2023-01-24T03:40:10.304Z,10.85
2023-01-24T03:42:47.787Z,9.85
2023-01-24T03:45:18.332Z,10.75
2023-01-24T03:48:05.868Z,9.70
2023-01-24T03:50:53.132Z,11.27
2023-01-24T03:53:22.370Z,10.00
2023-01-24T03:55:53.831Z,12.45
2023-01-24T03:58:21.654Z,10.27
2023-01-24T04:00:49.909Z,10.55
2023-01-24T04:03:19.190Z,10.25
2023-01-24T04:05:48.217Z,9.80
2023-01-24T04:08:16.363Z,10.30
2023-01-24T04:10:44.112Z,8.18
2023-01-24T04:13:12.319Z,8.80
2023-01-24T04:15:40.338Z,11.02
2023-01-24T04:18:08.732Z,11.65
2023-01-24T04:20:38.790Z,10.38
2023-01-24T04:23:08.393Z,10.00
2023-01-24T04:25:36.602Z,9.50
2023-01-24T04:28:04.808Z,10.27
2023-01-24T04:30:32.602Z,9.52
2023-01-24T04:33:00.629Z,11.80
2023-01-24T04:35:30.800Z,10.38
2023-01-24T04:38:04.144Z,12.02
2023-01-24T04:40:32.007Z,11.70
2023-01-24T04:42:59.904Z,12.55
2023-01-24T04:45:27.876Z,10.40
2023-01-24T04:47:55.708Z,10.95
2023-01-24T04:50:23.653Z,13.00
2023-01-24T04:52:51.543Z,10.73
2023-01-24T04:55:21.273Z,12.40
2023-01-24T04:57:49.143Z,10.02
2023-01-24T05:00:18.080Z,10.15
2023-01-24T05:02:45.853Z,11.70
2023-01-24T05:05:13.677Z,11.18
2023-01-24T05:07:41.372Z,11.65
2023-01-24T05:10:10.639Z,10.80
2023-01-24T05:12:39.803Z,11.15
2023-01-24T05:15:08.899Z,13.75
2023-01-24T05:17:36.634Z,11.23
2023-01-24T05:20:04.721Z,10.25
2023-01-24T05:22:32.543Z,12.18
2023-01-24T05:25:00.371Z,10.93
2023-01-24T05:27:28.158Z,10.10
2023-01-24T05:29:57.299Z,10.98
2023-01-24T05:32:25.048Z,12.48
2023-01-24T05:34:52.842Z,10.88
2023-01-24T05:37:20.553Z,11.20
2023-01-24T05:39:48.246Z,11.18
2023-01-24T05:42:16.103Z,12.07
2023-01-24T05:44:43.817Z,11.30
2023-01-24T05:47:13.011Z,12.25
2023-01-24T05:49:40.778Z,14.35
2023-01-24T05:52:08.599Z,11.57
2023-01-24T05:54:36.309Z,13.43
2023-01-24T05:57:04.067Z,12.00
2023-01-24T05:59:31.949Z,12.27
2023-01-24T06:01:59.688Z,12.13
2023-01-24T06:04:28.857Z,11.93
2023-01-24T06:06:56.670Z,13.57
2023-01-24T06:09:24.467Z,13.32
2023-01-24T06:11:52.378Z,13.50
2023-01-24T06:14:20.264Z,12.75
2023-01-24T06:16:48.821Z,11.90
2023-01-24T06:19:17.354Z,12.23
2023-01-24T06:21:48.366Z,12.63
2023-01-24T06:24:20.446Z,13.52
2023-01-24T06:26:50.405Z,12.90
2023-01-24T06:29:19.475Z,12.57
2023-01-24T06:32:01.239Z,12.20
2023-01-24T06:34:51.197Z,12.45
2023-01-24T06:37:29.937Z,13.90
2023-01-24T06:39:58.462Z,13.70
2023-01-24T06:42:26.994Z,12.27
2023-01-24T06:44:54.757Z,13.18
2023-01-24T06:47:24.849Z,12.30
2023-01-24T06:49:52.644Z,13.05
2023-01-24T06:52:21.773Z,12.05
2023-01-24T06:54:49.572Z,14.40
2023-01-24T06:57:17.987Z,11.57
2023-01-24T06:59:45.763Z,14.50
2023-01-24T07:02:13.745Z,14.02
2023-01-24T07:04:41.547Z,12.35
2023-01-24T07:07:09.372Z,13.68
2023-01-24T07:09:38.631Z,14.43
2023-01-24T07:12:06.779Z,11.18
2023-01-24T07:14:34.539Z,13.82
2023-01-24T07:17:02.886Z,14.27
2023-01-24T07:19:31.273Z,13.63
2023-01-24T07:21:59.569Z,14.73
2023-01-24T07:24:30.471Z,11.57
2023-01-24T07:27:00.419Z,13.45
2023-01-24T07:29:28.209Z,12.48
2023-01-24T07:31:56.077Z,11.73
2023-01-24T07:34:23.872Z,14.75
2023-01-24T07:36:51.642Z,12.90
2023-01-24T07:39:19.455Z,14.15
2023-01-24T07:41:47.189Z,13.88
2023-01-24T07:44:16.280Z,15.50
2023-01-24T07:46:44.031Z,13.25
2023-01-24T07:49:11.800Z,12.65
2023-01-24T07:51:40.752Z,13.50
2023-01-24T07:54:10.350Z,13.15
2023-01-24T07:56:38.397Z,14.48
2023-01-24T07:59:06.479Z,13.57
2023-01-24T08:01:35.644Z,14.25
2023-01-24T08:04:03.444Z,12.90
2023-01-24T08:06:31.378Z,12.70
2023-01-24T08:08:59.274Z,13.70
2023-01-24T08:11:27.034Z,15.13
2023-01-24T08:13:55.866Z,14.23
2023-01-24T08:16:26.747Z,14.90
2023-01-24T08:18:55.980Z,14.00
2023-01-24T08:21:23.792Z,13.80
2023-01-24T08:23:51.583Z,14.20
2023-01-24T08:26:20.505Z,13.60
2023-01-24T08:28:49.238Z,12.80
2023-01-24T08:31:16.944Z,14.13
2023-01-24T08:33:44.781Z,14.65
2023-01-24T08:36:13.858Z,14.45
2023-01-24T08:38:41.719Z,14.52
2023-01-24T08:41:09.694Z,14.70
2023-01-24T08:43:37.442Z,13.38
2023-01-24T08:46:05.786Z,14.70
2023-01-24T08:48:33.751Z,15.85
2023-01-24T08:51:04.581Z,13.32
2023-01-24T08:53:35.285Z,14.43
2023-01-24T08:56:03.562Z,13.10
2023-01-24T08:58:33.213Z,13.38
2023-01-24T09:01:01.108Z,13.18
2023-01-24T09:03:29.106Z,14.80
2023-01-24T09:05:58.237Z,15.30
2023-01-24T09:08:26.263Z,16.35
2023-01-24T09:10:55.540Z,15.55
2023-01-24T09:13:23.319Z,16.10
2023-01-24T09:15:52.972Z,14.25
2023-01-24T09:18:21.428Z,15.93
2023-01-24T09:20:49.333Z,14.77
2023-01-24T09:23:17.182Z,14.40
2023-01-24T09:25:52.543Z,15.25
2023-01-24T09:28:21.698Z,17.30
2023-01-24T09:30:49.967Z,14.68
2023-01-24T09:33:21.080Z,15.80
2023-01-24T09:35:58.010Z,14.27
2023-01-24T09:38:28.117Z,14.50
2023-01-24T09:41:02.905Z,16.88
2023-01-24T09:43:43.787Z,12.50
2023-01-24T09:46:33.357Z,14.52
2023-01-24T09:49:07.184Z,15.75
2023-01-24T09:51:39.208Z,13.55
2023-01-24T09:54:08.097Z,17.05
2023-01-24T09:56:38.226Z,13.75
2023-01-24T09:59:18.978Z,15.45
2023-01-24T10:01:48.943Z,14.52
2023-01-24T10:04:20.753Z,15.00
2023-01-24T10:07:27.585Z,16.45
2023-01-24T10:10:06.535Z,14.07
2023-01-24T10:12:49.851Z,14.95
2023-01-24T10:15:36.239Z,13.98
2023-01-24T10:18:21.576Z,13.23
2023-01-24T10:21:02.213Z,16.95
2023-01-24T10:23:35.328Z,15.10
2023-01-24T10:26:07.037Z,15.27
2023-01-24T10:28:39.480Z,16.08
2023-01-24T10:31:15.337Z,13.43
2023-01-24T10:33:48.478Z,16.08
2023-01-24T10:36:24.129Z,17.13
2023-01-24T10:38:52.108Z,15.15
2023-01-24T10:41:22.754Z,15.23
2023-01-24T10:43:57.931Z,16.95
2023-01-24T10:46:59.462Z,17.30
2023-01-24T10:49:29.944Z,18.15
2023-01-24T10:52:16.713Z,16.33
2023-01-24T10:54:46.907Z,17.10
2023-01-24T10:57:39.514Z,16.27
2023-01-24T11:00:20.288Z,14.70
2023-01-24T11:02:51.654Z,15.85
2023-01-24T11:05:21.912Z,16.20
2023-01-24T11:07:52.125Z,17.08
2023-01-24T11:10:23.376Z,18.98
2023-01-24T11:12:55.361Z,15.77
2023-01-24T11:15:27.134Z,17.35
2023-01-24T11:17:59.458Z,14.82
2023-01-24T11:20:35.547Z,14.00
2023-01-24T11:23:06.084Z,15.75
2023-01-24T11:25:34.157Z,15.75
2023-01-24T11:28:02.002Z,15.48
2023-01-24T11:30:35.203Z,14.68
2023-01-24T11:33:26.502Z,14.55
2023-01-24T11:35:57.516Z,16.67
2023-01-24T11:38:30.279Z,16.10
2023-01-24T11:41:09.742Z,17.90
2023-01-24T11:44:25.046Z,15.38
2023-01-24T11:47:01.403Z,17.13
2023-01-24T11:49:55.495Z,16.48
2023-01-24T11:55:05.521Z,12.18
2023-01-24T11:57:47.560Z,14.93
2023-01-24T12:00:26.591Z,16.00
2023-01-24T12:03:18.703Z,14.02
2023-01-24T12:05:59.557Z,15.48
2023-01-24T12:08:43.326Z,16.10
2023-01-24T12:14:26.959Z,15.07
2023-01-24T12:17:09.139Z,14.48
2023-01-24T12:19:56.083Z,16.38
2023-01-24T12:22:28.261Z,15.70
2023-01-24T12:25:01.382Z,15.18
2023-01-24T12:27:34.011Z,15.77
2023-01-24T12:30:06.699Z,16.87
2023-01-24T12:32:42.700Z,14.80
2023-01-24T12:35:21.372Z,17.08
2023-01-24T12:38:07.787Z,14.75
2023-01-24T12:40:52.240Z,14.95
2023-01-24T12:43:28.985Z,11.82
2023-01-24T12:46:04.887Z,17.65
2023-01-24T12:48:41.612Z,16.92
2023-01-24T12:51:22.309Z,15.38
2023-01-24T12:54:01.930Z,16.40
2023-01-24T12:56:38.294Z,15.10
2023-01-24T12:59:06.207Z,13.43
2023-01-24T13:01:55.376Z,14.18
2023-01-24T13:04:35.271Z,16.33
2023-01-24T13:07:14.300Z,15.23
2023-01-24T13:09:50.553Z,16.17
2023-01-24T13:12:23.825Z,13.38
2023-01-24T13:14:56.513Z,12.45
2023-01-24T13:17:59.190Z,14.13
2023-01-24T13:20:53.504Z,14.52
2023-01-24T13:23:53.334Z,13.13
2023-01-24T13:26:48.730Z,15.75
2023-01-24T13:29:56.685Z,13.63
2023-01-24T13:32:25.735Z,14.23
2023-01-24T13:34:57.474Z,12.95
2023-01-24T13:37:29.586Z,14.13
2023-01-24T13:40:09.368Z,16.00
2023-01-24T13:42:40.483Z,14.90
2023-01-24T13:45:50.326Z,14.57
2023-01-24T13:48:54.534Z,14.30
2023-01-24T13:51:49.525Z,15.30
2023-01-24T13:54:38.646Z,13.07
2023-01-24T13:57:23.722Z,16.13
2023-01-24T14:00:16.210Z,15.38
2023-01-24T14:02:56.723Z,13.27
2023-01-24T14:05:44.010Z,13.00
2023-01-24T14:08:34.787Z,12.60
2023-01-24T14:11:19.814Z,13.98
2023-01-24T14:14:03.371Z,15.68
2023-01-24T14:17:01.940Z,17.05
2023-01-24T14:19:34.700Z,14.75
2023-01-24T14:22:08.044Z,14.82
2023-01-24T14:24:38.077Z,13.70
2023-01-24T14:27:19.241Z,12.93
2023-01-24T14:29:50.560Z,10.57
2023-01-24T14:32:26.185Z,13.75
2023-01-24T14:35:01.833Z,12.05
2023-01-24T14:37:32.831Z,12.95
2023-01-24T14:40:20.422Z,12.95
2023-01-24T14:42:48.680Z,13.23
2023-01-24T14:45:18.510Z,15.27
2023-01-24T14:47:50.764Z,20.35
2023-01-24T14:50:24.745Z,13.50
2023-01-24T14:52:52.948Z,14.82
2023-01-24T14:55:33.728Z,15.43
2023-01-24T14:58:21.208Z,13.70
2023-01-24T15:00:49.701Z,13.30
2023-01-24T15:03:22.526Z,14.73
2023-01-24T15:06:02.444Z,12.10
2023-01-24T15:08:30.842Z,13.25
2023-01-24T15:11:02.125Z,12.82
2023-01-24T15:13:35.939Z,11.40
2023-01-24T15:16:05.739Z,13.10
2023-01-24T15:18:47.316Z,13.15
2023-01-24T15:21:27.486Z,12.98
2023-01-24T15:23:58.187Z,14.45
2023-01-24T15:26:35.974Z,13.85
2023-01-24T15:29:51.895Z,13.48
2023-01-24T15:32:32.157Z,11.10
2023-01-24T15:35:39.524Z,12.95
2023-01-24T15:38:21.713Z,11.02
2023-01-24T15:40:55.621Z,11.65
2023-01-24T15:43:46.726Z,11.32
2023-01-24T15:46:41.323Z,11.45
2023-01-24T15:49:32.523Z,10.88
2023-01-24T15:52:05.126Z,11.98
2023-01-24T15:54:34.777Z,10.77
2023-01-24T15:57:04.413Z,9.73
2023-01-24T15:59:33.283Z,10.43
2023-01-24T16:02:01.844Z,11.35
2023-01-24T16:04:29.676Z,10.52
2023-01-24T16:06:57.467Z,12.55
2023-01-24T16:09:26.030Z,10.90
2023-01-24T16:11:55.286Z,10.25
2023-01-24T16:14:25.332Z,9.07
2023-01-24T16:16:55.176Z,7.60
2023-01-24T16:19:24.555Z,10.35
2023-01-24T16:21:52.862Z,8.73
2023-01-24T16:24:20.857Z,10.23
2023-01-24T16:26:51.590Z,10.35
2023-01-24T16:29:23.680Z,9.57
2023-01-24T16:31:51.543Z,9.63
2023-01-24T16:34:19.915Z,11.63
2023-01-24T16:36:47.931Z,11.43
2023-01-24T16:39:19.385Z,9.60
2023-01-24T16:41:47.781Z,11.30
2023-01-24T16:44:15.658Z,8.93
2023-01-24T16:46:49.554Z,12.15
2023-01-24T16:49:17.978Z,11.15
2023-01-24T16:51:46.663Z,10.43
2023-01-24T16:54:15.538Z,10.13
2023-01-24T16:56:45.950Z,10.68
2023-01-24T16:59:13.741Z,13.63
2023-01-24T17:01:42.676Z,10.75
2023-01-24T17:04:12.546Z,10.88
2023-01-24T17:06:40.373Z,9.80
2023-01-24T17:09:09.548Z,10.90
2023-01-24T17:11:37.361Z,13.18
2023-01-24T17:14:05.093Z,12.48
2023-01-24T17:16:32.982Z,13.00
2023-01-24T17:19:02.609Z,14.80
2023-01-24T17:21:31.896Z,13.13
2023-01-24T17:23:59.663Z,12.38
2023-01-24T17:26:27.476Z,11.95
2023-01-24T17:28:55.344Z,12.80
2023-01-24T17:31:23.218Z,13.35
2023-01-24T17:33:51.077Z,12.20
2023-01-24T17:36:19.442Z,12.07
2023-01-24T17:38:48.767Z,13.85
2023-01-24T17:41:18.775Z,10.95
2023-01-24T17:43:53.153Z,11.15
2023-01-24T17:46:22.170Z,12.35
2023-01-24T17:48:50.146Z,11.57
2023-01-24T17:51:19.319Z,12.25
2023-01-24T17:53:48.938Z,11.48
2023-01-24T17:56:18.054Z,11.98
2023-01-24T17:58:46.251Z,12.18
2023-01-24T18:01:15.700Z,10.45
2023-01-24T18:03:44.196Z,12.27
2023-01-24T18:06:12.023Z,11.35
2023-01-24T18:08:39.887Z,12.52
2023-01-24T18:11:10.115Z,10.50
2023-01-24T18:13:38.704Z,12.43
2023-01-24T18:16:09.392Z,12.38
2023-01-24T18:18:38.823Z,13.13
2023-01-24T18:21:10.861Z,10.90
2023-01-24T18:23:39.059Z,12.60
2023-01-24T18:26:07.895Z,11.85
2023-01-24T18:28:37.779Z,11.48
2023-01-24T18:31:08.174Z,13.38
2023-01-24T18:33:36.031Z,12.20
2023-01-24T18:36:08.281Z,13.65
2023-01-24T18:38:36.313Z,14.48
2023-01-24T18:41:04.066Z,14.10
2023-01-24T18:43:31.846Z,13.48
2023-01-24T18:46:04.588Z,11.70
2023-01-24T18:48:35.899Z,12.60
2023-01-24T18:51:07.744Z,12.82
2023-01-24T18:53:35.650Z,12.07
2023-01-24T18:56:05.102Z,13.23
2023-01-24T18:58:33.389Z,13.25
2023-01-24T19:01:01.332Z,14.65
2023-01-24T19:03:30.505Z,13.07
2023-01-24T19:05:58.191Z,11.80
2023-01-24T19:08:25.956Z,14.23
2023-01-24T19:10:53.691Z,14.43
2023-01-24T19:13:21.452Z,13.70
2023-01-24T19:15:49.238Z,14.52
2023-01-24T19:18:17.928Z,14.07
2023-01-24T19:20:47.059Z,11.68
2023-01-24T19:23:15.998Z,12.93
2023-01-24T19:25:43.843Z,13.73
2023-01-24T19:28:11.585Z,14.10
2023-01-24T19:30:39.336Z,17.00
2023-01-24T19:33:07.057Z,12.13
2023-01-24T19:35:36.590Z,15.82
2023-01-24T19:38:05.642Z,13.52
2023-01-24T19:40:34.308Z,13.00
2023-01-24T19:43:02.033Z,11.57
2023-01-24T19:45:29.754Z,14.18
2023-01-24T19:47:57.438Z,14.43
2023-01-24T19:50:25.187Z,14.48
2023-01-24T19:52:52.969Z,15.60
2023-01-24T19:55:22.118Z,14.95
2023-01-24T19:57:49.924Z,13.60
2023-01-24T20:00:18.443Z,16.08
2023-01-24T20:02:46.873Z,17.90
2023-01-24T20:05:14.849Z,12.88
2023-01-24T20:07:42.603Z,15.20
2023-01-24T20:10:12.567Z,15.32
2023-01-24T20:12:42.509Z,14.20
2023-01-24T20:15:11.409Z,13.23
2023-01-24T20:17:39.274Z,12.95
2023-01-24T20:20:08.354Z,16.70
2023-01-24T20:22:36.056Z,14.88
2023-01-24T20:25:13.742Z,15.23
2023-01-24T20:27:47.882Z,13.15
2023-01-24T20:30:16.946Z,16.08
2023-01-24T20:32:44.766Z,16.38
2023-01-24T20:35:13.206Z,15.30
2023-01-24T20:37:41.021Z,16.83
2023-01-24T20:40:10.196Z,12.95
2023-01-24T20:42:41.795Z,15.00
2023-01-24T20:45:12.002Z,15.57
2023-01-24T20:47:39.873Z,12.25
2023-01-24T20:50:08.655Z,15.30
2023-01-24T20:52:36.419Z,14.85
2023-01-24T20:55:04.448Z,14.25
2023-01-24T20:57:32.321Z,13.82
2023-01-24T21:00:00.051Z,14.15
2023-01-24T21:02:29.278Z,14.77
2023-01-24T21:04:57.153Z,15.57
2023-01-24T21:07:24.853Z,16.00
2023-01-24T21:09:52.977Z,13.85
2023-01-24T21:12:20.743Z,13.25
2023-01-24T21:14:48.803Z,14.70
2023-01-24T21:17:19.734Z,12.95
2023-01-24T21:19:48.971Z,15.02
2023-01-24T21:22:16.671Z,13.57
2023-01-24T21:24:44.477Z,12.05
2023-01-24T21:27:12.281Z,13.45
2023-01-24T21:29:40.408Z,11.43
2023-01-24T21:32:08.371Z,13.15
2023-01-24T21:34:36.360Z,12.88
2023-01-24T21:37:05.531Z,14.07
2023-01-24T21:39:33.423Z,12.38
2023-01-24T21:42:02.781Z,13.55
2023-01-24T21:44:32.721Z,14.10
2023-01-24T21:47:00.983Z,11.15
2023-01-24T21:49:29.008Z,13.55
2023-01-24T21:51:59.711Z,12.23
2023-01-24T21:54:31.587Z,12.45
2023-01-24T21:57:30.235Z,11.75
2023-01-24T21:59:59.495Z,11.15
2023-01-24T22:02:29.112Z,11.00
2023-01-24T22:04:57.198Z,12.10
2023-01-24T22:07:26.890Z,11.98
2023-01-24T22:09:57.823Z,13.85
2023-01-24T22:12:25.911Z,12.40
2023-01-24T22:14:54.282Z,12.70
2023-01-24T22:17:24.801Z,12.93
2023-01-24T22:19:55.234Z,11.50
2023-01-24T22:22:49.026Z,11.73
2023-01-24T22:25:29.413Z,11.45
2023-01-24T22:27:57.711Z,12.57
2023-01-24T22:30:27.500Z,11.23
2023-01-24T22:32:56.826Z,11.07
2023-01-24T22:35:26.830Z,11.93
2023-01-24T22:37:56.862Z,12.77
2023-01-24T22:40:27.812Z,11.13
2023-01-24T22:42:57.842Z,12.50
2023-01-24T22:45:26.418Z,10.52
2023-01-24T22:47:54.166Z,11.80
2023-01-24T22:50:22.242Z,11.75
2023-01-24T22:52:50.361Z,11.73
2023-01-24T22:55:18.945Z,10.63
2023-01-24T22:57:48.144Z,10.55
2023-01-24T23:00:17.212Z,10.77
2023-01-24T23:02:44.966Z,11.40
2023-01-24T23:05:12.995Z,10.15
2023-01-24T23:07:41.014Z,10.27
2023-01-24T23:10:09.870Z,9.73
2023-01-24T23:12:55.636Z,9.02
2023-01-24T23:15:42.269Z,10.43
2023-01-24T23:18:15.340Z,8.40
2023-01-24T23:21:00.456Z,9.50
2023-01-24T23:23:28.209Z,9.45
2023-01-24T23:25:56.034Z,11.32
2023-01-24T23:28:29.273Z,9.18
2023-01-24T23:31:05.800Z,9.88
2023-01-24T23:33:36.795Z,11.02
2023-01-24T23:36:04.732Z,9.02
2023-01-24T23:38:32.577Z,10.15
2023-01-24T23:41:00.353Z,9.68
2023-01-24T23:43:28.333Z,9.25
2023-01-24T23:45:56.228Z,9.38
2023-01-24T23:48:25.405Z,10.00
2023-01-24T23:50:57.066Z,8.90
2023-01-24T23:53:25.185Z,8.55
2023-01-24T23:55:53.196Z,9.38
2023-01-24T23:58:20.950Z,11.85
